Terminal Aerodrome Forecast
Issued by NWS

Home | Current Version | Previous Version | Text Only | Print | Product List | Glossary On
Versions: 1 2 3 4 5 6 7 8 9 10 11 12 13 14 15 16 17 18 19 20
000
FTUS44 KEWX 061742
TAFSSF
TAF
KSSF 061742Z 0618/0718 08006KT P6SM SCT250
     FM062300 11005KT P6SM BKN080 BKN250
     FM071700 12006KT P6SM BKN060 BKN150=

USA.gov is the U.S. government's official web portal to all federal, state and local government web resources and services.